Quarteles, New Mexico
Current Conditions -  °F | °C
As of 3:35 AM on Saturday 01 Nov 2014 (Local Time) from KLAM Reporting Station
Overcast Overcast  
Wind Chill:   Ceiling: 4100
Heat Index:   Visibility: 10mi
Dew Point:   Wind: 3mph
Humidity: 58%   Direction: 190°S
Pressure: 30.27"   Gusts: NA
Location:  35.9775°N, 106.158°W
Report Text: KLAM 010935Z AUTO 19003KT 10SM SCT028 OVC041 08/00 A3027 RMK AO2 T00771001
Loading
Personal Weather Stations






























Interactive Weather Map
Tropical Storm Tracking
New forecast layout! Learn more

10-Day Weather Forecast

Advertisements
Track Severe Weather on mobile